Terminal Aerodrome Forecast
Issued by NWS Pittsburgh, PA

Home | Current Version | Previous Version | Text Only | Print | Product List | Glossary On
Versions: 1 2 3 4 5 6 7 8 9 10 11 12 13 14 15 16 17 18 19 20 21 22 23 24 25 26
000
FTUS41 KPBZ 281100
TAFPIT
TAF
KPIT 281120Z 2812/2918 30008KT P6SM SCT006 OVC012
      TEMPO 2812/2814 -SHRASN BKN006
     FM281500 30006KT P6SM BKN025
     FM282100 32005KT P6SM BKN035=

USA.gov is the U.S. government's official web portal to all federal, state and local government web resources and services.